Terminal Aerodrome Forecast
Issued by NWS Sioux Falls, SD

Home | Current Version | Previous Version | Text Only | Print | Product List | Glossary On
Versions: 1 2 3 4 5 6 7 8 9 10 11 12 13 14 15 16 17 18 19 20 21 22 23 24
295
FTUS43 KFSD 261741 AAA
TAFFSD
TAF AMD
KFSD 261741Z 2618/2718 31009KT P6SM BKN015
     FM261900 31010KT P6SM BKN030
     FM262100 30009KT P6SM SCT035
     FM270200 VRB03KT P6SM SKC
      TEMPO 2710/2712 3SM BR SCT008=

USA.gov is the U.S. government's official web portal to all federal, state and local government web resources and services.